Time;durP1;ratioP1;P1;durP2;ratioP2;P2;SDS_P1;SDS_P2;PMS_P1;PMS_P2;Temp;Humidity;BMP_temperature;BMP_pressure;BME280_temperature;BME280_humidity;BME280_pressure;Samples;Min_cycle;Max_cycle;Signal;HPM_P1;HPM_P2
2023/02/22 00:02:43;;;;;;;160.97;29.80;;;2.60;99.90;;;;;;4791377;30;20185;-62
2023/02/22 00:05:52;;;;;;;211.20;33.70;;;2.60;99.90;;;;;;4791118;30;20244;-63
2023/02/22 00:09:01;;;;;;;200.13;31.70;;;2.70;99.90;;;;;;4791268;30;20256;-63
2023/02/22 00:12:09;;;;;;;309.90;35.40;;;2.80;99.90;;;;;;4790961;30;20221;-62
2023/02/22 00:15:16;;;;;;;165.83;30.43;;;2.90;99.90;;;;;;4791079;30;20216;-63
2023/02/22 00:18:22;;;;;;;194.23;29.37;;;2.90;99.90;;;;;;4791174;30;20409;-63
2023/02/22 00:49:12;;;;;;;90.60;23.67;;;3.20;99.90;;;;;;4826828;29;20163;-62
2023/02/22 00:52:18;;;;;;;201.17;28.17;;;3.20;99.90;;;;;;4826878;29;20224;-62
2023/02/22 00:55:27;;;;;;;119.40;26.30;;;3.20;99.90;;;;;;4826515;29;20763;-62
2023/02/22 00:58:33;;;;;;;244.23;31.70;;;3.20;99.90;;;;;;4826581;29;20236;-64
2023/02/22 01:01:39;;;;;;;289.13;34.43;;;3.20;99.90;;;;;;4826518;29;20183;-63
2023/02/22 01:04:47;;;;;;;214.30;31.27;;;3.20;99.90;;;;;;4826537;29;20188;-62
2023/02/22 01:07:54;;;;;;;169.23;30.30;;;3.20;99.90;;;;;;4826415;29;20196;-62
2023/02/22 01:11:00;;;;;;;158.30;29.37;;;3.20;99.90;;;;;;4826279;29;20219;-63
2023/02/22 01:14:08;;;;;;;256.63;33.00;;;3.20;99.90;;;;;;4826357;29;20192;-63
2023/02/22 01:17:14;;;;;;;149.43;29.40;;;3.20;99.90;;;;;;4826490;29;20212;-63
2023/02/22 01:20:22;;;;;;;273.50;34.30;;;3.30;99.90;;;;;;4826525;29;20244;-63
2023/02/22 01:23:28;;;;;;;199.53;32.33;;;3.30;99.90;;;;;;4826578;29;20219;-62
2023/02/22 01:26:33;;;;;;;269.70;35.03;;;3.30;99.90;;;;;;4825890;29;20232;-63
2023/02/22 01:29:40;;;;;;;126.37;31.33;;;3.30;99.90;;;;;;4825774;29;20184;-63
2023/02/22 01:32:46;;;;;;;195.20;33.33;;;3.30;99.90;;;;;;4825815;29;20667;-62
2023/02/22 01:35:53;;;;;;;219.17;34.53;;;3.30;99.90;;;;;;4826410;29;20192;-62
2023/02/22 01:38:59;;;;;;;236.03;34.37;;;3.30;99.90;;;;;;4825677;29;20240;-63
2023/02/22 01:42:04;;;;;;;116.27;30.13;;;3.30;99.90;;;;;;4826351;29;20319;-63
2023/02/22 01:45:43;;;;;;;157.03;31.37;;;3.30;99.90;;;;;;4825869;29;20241;-62
2023/02/22 01:48:54;;;;;;;136.43;30.30;;;3.30;99.90;;;;;;4825830;29;20196;-63
2023/02/22 01:52:05;;;;;;;171.77;33.20;;;3.40;99.90;;;;;;4825644;29;20192;-63
2023/02/22 01:55:15;;;;;;;148.40;29.07;;;3.40;99.90;;;;;;4825904;29;20231;-63
2023/02/22 01:58:23;;;;;;;276.50;34.60;;;3.40;99.90;;;;;;4825356;29;20220;-62
2023/02/22 02:01:29;;;;;;;124.07;29.57;;;3.40;99.90;;;;;;4825937;29;20578;-63
2023/02/22 02:04:36;;;;;;;187.67;30.00;;;3.40;99.90;;;;;;4825437;29;20192;-63
2023/02/22 02:07:45;;;;;;;138.73;28.00;;;3.50;99.90;;;;;;4825241;29;20246;-63
2023/02/22 02:10:51;;;;;;;269.63;34.23;;;3.50;99.90;;;;;;4807291;29;20228;-63
2023/02/22 02:13:58;;;;;;;135.83;28.97;;;3.50;99.90;;;;;;4807020;29;20664;-63
2023/02/22 02:17:05;;;;;;;214.10;32.10;;;3.50;99.90;;;;;;4807151;29;20622;-63
2023/02/22 02:20:19;;;;;;;137.37;30.47;;;3.60;99.90;;;;;;4807468;29;20565;-63
2023/02/22 02:23:57;;;;;;;189.37;32.63;;;3.60;99.90;;;;;;4807119;29;20193;-62
2023/02/22 02:27:11;;;;;;;193.53;33.07;;;3.60;99.90;;;;;;4807081;29;20353;-63
2023/02/22 02:30:52;;;;;;;224.87;34.33;;;3.60;99.90;;;;;;4807175;29;20185;-63
2023/02/22 02:34:04;;;;;;;114.23;29.77;;;3.60;99.90;;;;;;4802850;29;20204;-63
2023/02/22 02:37:12;;;;;;;103.60;29.87;;;3.70;99.90;;;;;;4806842;29;20218;-62
2023/02/22 02:40:23;;;;;;;188.00;32.67;;;3.70;99.90;;;;;;4806836;29;20265;-63
2023/02/22 02:43:35;;;;;;;206.20;32.47;;;3.70;99.90;;;;;;4807097;29;20225;-62
2023/02/22 02:46:46;;;;;;;137.57;31.63;;;3.70;99.90;;;;;;4806883;29;20281;-63
2023/02/22 02:49:58;;;;;;;122.87;30.30;;;3.70;99.90;;;;;;4806418;29;20200;-62
2023/02/22 02:53:07;;;;;;;145.50;32.07;;;3.70;99.90;;;;;;4807011;29;20184;-63
2023/02/22 02:56:14;;;;;;;223.07;34.83;;;3.70;99.90;;;;;;4806824;29;20237;-62
2023/02/22 02:59:25;;;;;;;188.13;32.33;;;3.70;99.90;;;;;;4807083;29;20208;-63
2023/02/22 03:02:48;;;;;;;306.13;35.37;;;3.70;99.90;;;;;;4806312;29;20242;-63
2023/02/22 03:06:28;;;;;;;217.23;31.30;;;3.70;99.90;;;;;;4806343;29;20246;-63
2023/02/22 03:09:46;;;;;;;190.23;31.73;;;3.70;99.90;;;;;;4806456;29;20193;-62
2023/02/22 03:13:01;;;;;;;416.30;36.53;;;3.60;99.90;;;;;;4806654;29;20220;-63
2023/02/22 03:16:16;;;;;;;149.33;29.70;;;3.70;99.90;;;;;;4806949;29;20189;-63
2023/02/22 03:19:27;;;;;;;200.67;31.93;;;3.60;99.90;;;;;;4806218;29;20209;-63
2023/02/22 03:22:42;;;;;;;193.87;30.40;;;3.60;99.90;;;;;;4806403;29;20193;-62
2023/02/22 03:25:51;;;;;;;241.70;33.20;;;3.60;99.90;;;;;;4806446;29;20715;-63
2023/02/22 03:29:01;;;;;;;130.90;28.33;;;3.50;99.90;;;;;;4805992;29;20221;-63
2023/02/22 03:32:11;;;;;;;186.17;32.33;;;3.50;99.90;;;;;;4806284;29;20232;-63
2023/02/22 03:35:22;;;;;;;190.30;31.13;;;3.60;99.90;;;;;;4806400;29;20604;-62
2023/02/22 03:38:33;;;;;;;235.73;33.70;;;3.60;99.90;;;;;;4806434;29;20582;-63
2023/02/22 03:41:40;;;;;;;240.43;35.90;;;3.60;99.90;;;;;;4806351;29;20557;-63
2023/02/22 03:44:47;;;;;;;159.87;31.77;;;3.60;99.90;;;;;;4806680;29;20192;-62
2023/02/22 03:48:01;;;;;;;176.70;32.63;;;3.60;99.90;;;;;;4806190;29;20238;-62
2023/02/22 03:51:07;;;;;;;138.37;30.30;;;3.60;99.90;;;;;;4806739;29;20253;-63
2023/02/22 03:54:15;;;;;;;133.87;31.30;;;3.60;99.90;;;;;;4806272;29;20230;-63
2023/02/22 03:57:26;;;;;;;106.00;28.83;;;3.60;99.90;;;;;;4806002;29;20229;-63
2023/02/22 04:00:34;;;;;;;132.97;30.90;;;3.60;99.90;;;;;;4807097;29;20193;-63
2023/02/22 04:03:40;;;;;;;106.53;29.20;;;3.60;99.90;;;;;;4809582;29;20329;-63
2023/02/22 04:06:48;;;;;;;129.73;30.80;;;3.60;99.90;;;;;;4809058;29;20604;-62
2023/02/22 04:09:55;;;;;;;123.90;29.43;;;3.60;99.90;;;;;;4809347;29;20242;-62
2023/02/22 04:13:01;;;;;;;111.90;28.80;;;3.60;99.90;;;;;;4809574;29;20749;-63
2023/02/22 04:16:07;;;;;;;106.40;29.03;;;3.60;99.90;;;;;;4809347;29;20709;-63
2023/02/22 04:19:13;;;;;;;110.43;30.20;;;3.60;99.90;;;;;;4809015;29;20216;-62
2023/02/22 04:22:19;;;;;;;118.37;30.07;;;3.70;99.90;;;;;;4809423;29;20204;-63
2023/02/22 04:25:26;;;;;;;105.07;29.97;;;3.70;99.90;;;;;;4809000;29;20201;-62
2023/02/22 04:28:32;;;;;;;104.20;28.23;;;3.70;99.90;;;;;;4808697;29;20228;-63
2023/02/22 04:31:38;;;;;;;103.93;29.57;;;3.70;99.90;;;;;;4809579;29;20258;-63
2023/02/22 04:34:46;;;;;;;111.60;31.10;;;3.70;99.90;;;;;;4809076;29;20205;-62
2023/02/22 04:37:52;;;;;;;105.83;30.60;;;3.70;99.90;;;;;;4808875;29;20202;-63
2023/02/22 04:40:59;;;;;;;108.93;30.57;;;3.80;99.90;;;;;;4808555;29;20220;-63
2023/02/22 04:44:05;;;;;;;99.73;30.70;;;3.80;99.90;;;;;;4808653;29;20232;-63
2023/02/22 04:47:10;;;;;;;110.30;32.23;;;3.80;99.90;;;;;;4809040;29;20319;-63
2023/02/22 04:50:17;;;;;;;101.90;30.03;;;3.80;99.90;;;;;;4809134;29;20702;-62
2023/02/22 04:53:23;;;;;;;110.67;31.30;;;3.80;99.90;;;;;;4808775;29;20322;-62
2023/02/22 04:56:30;;;;;;;98.20;29.47;;;3.80;99.90;;;;;;4808456;29;20364;-63
2023/02/22 04:59:36;;;;;;;99.80;29.57;;;3.80;99.90;;;;;;4808284;29;20223;-63
2023/02/22 05:02:41;;;;;;;105.80;28.47;;;3.70;99.90;;;;;;4808557;29;20313;-63
2023/02/22 05:05:47;;;;;;;105.63;30.03;;;3.70;99.90;;;;;;4808514;29;20240;-64
2023/02/22 05:08:53;;;;;;;94.10;29.87;;;3.70;99.90;;;;;;4808632;29;20180;-62
2023/02/22 05:12:00;;;;;;;99.60;30.50;;;3.70;99.90;;;;;;4808008;29;20357;-63
2023/02/22 05:15:08;;;;;;;102.50;28.23;;;3.60;99.90;;;;;;4808344;29;20265;-62
2023/02/22 05:18:14;;;;;;;101.60;28.20;;;3.60;99.90;;;;;;4808006;29;20269;-64
2023/02/22 05:21:20;;;;;;;91.73;28.83;;;3.60;99.90;;;;;;4808192;29;20644;-63
2023/02/22 05:24:25;;;;;;;95.47;28.57;;;3.70;99.90;;;;;;4808554;29;20242;-64
2023/02/22 05:27:33;;;;;;;82.10;27.07;;;3.70;99.90;;;;;;4808277;29;20232;-63
2023/02/22 05:30:39;;;;;;;99.77;28.90;;;3.70;99.90;;;;;;4808461;29;20273;-63
2023/02/22 05:33:47;;;;;;;95.03;29.87;;;3.80;99.90;;;;;;4808049;29;20553;-62
2023/02/22 05:36:52;;;;;;;97.73;29.87;;;3.80;99.90;;;;;;4808344;29;20219;-63
2023/02/22 05:39:58;;;;;;;90.53;29.23;;;3.80;99.90;;;;;;4807697;29;20253;-63
2023/02/22 05:43:05;;;;;;;88.33;28.73;;;3.80;99.90;;;;;;4807392;29;20286;-62
2023/02/22 05:46:11;;;;;;;99.30;31.07;;;3.80;99.90;;;;;;4807851;29;20189;-63
2023/02/22 05:49:17;;;;;;;86.03;28.57;;;3.80;99.90;;;;;;4807439;29;20340;-63
2023/02/22 05:52:23;;;;;;;104.63;30.30;;;3.80;99.90;;;;;;4807703;29;20196;-63
2023/02/22 05:55:28;;;;;;;89.97;29.47;;;3.80;99.90;;;;;;4807590;29;20648;-63
2023/02/22 05:58:36;;;;;;;96.57;31.87;;;3.80;99.90;;;;;;4807701;29;20319;-64
2023/02/22 06:01:42;;;;;;;101.43;29.17;;;3.70;99.90;;;;;;4807720;29;20193;-63
2023/02/22 06:04:48;;;;;;;99.20;30.43;;;3.80;99.90;;;;;;4807394;29;20262;-62
2023/02/22 06:07:54;;;;;;;103.30;30.93;;;3.80;99.90;;;;;;4807062;29;20213;-63
2023/02/22 06:11:00;;;;;;;99.57;29.90;;;3.80;99.90;;;;;;4807090;29;20706;-63
2023/02/22 06:14:07;;;;;;;90.00;28.77;;;3.90;99.90;;;;;;4806889;29;20232;-63
2023/02/22 06:17:14;;;;;;;90.63;28.23;;;3.90;99.90;;;;;;4807328;29;20558;-62
2023/02/22 06:20:23;;;;;;;87.63;29.77;;;3.90;99.90;;;;;;4807046;29;20213;-63
2023/02/22 06:23:29;;;;;;;96.57;28.73;;;3.90;99.90;;;;;;4806562;29;20188;-62
2023/02/22 06:26:35;;;;;;;89.10;28.17;;;4.00;99.90;;;;;;4807073;29;20589;-62
2023/02/22 06:29:45;;;;;;;94.23;28.83;;;4.00;99.90;;;;;;4807103;29;20269;-64
2023/02/22 06:32:51;;;;;;;82.50;29.83;;;4.10;99.90;;;;;;4807677;29;20188;-62
2023/02/22 06:35:57;;;;;;;89.43;29.63;;;4.20;99.90;;;;;;4806939;29;20185;-63
2023/02/22 06:39:02;;;;;;;86.30;29.27;;;4.20;99.90;;;;;;4807360;29;20249;-63
2023/02/22 06:42:08;;;;;;;88.27;29.30;;;4.20;99.90;;;;;;4806625;29;20229;-63
2023/02/22 06:45:17;;;;;;;88.90;29.10;;;4.20;99.90;;;;;;4806443;29;20244;-62
2023/02/22 06:48:23;;;;;;;92.77;30.00;;;4.20;99.90;;;;;;4807142;29;20223;-63
2023/02/22 06:51:29;;;;;;;100.10;29.93;;;4.10;99.90;;;;;;4806694;29;20242;-62
2023/02/22 06:54:36;;;;;;;82.53;29.23;;;4.10;99.90;;;;;;4806841;29;20193;-63
2023/02/22 06:57:41;;;;;;;84.50;29.27;;;4.10;99.90;;;;;;4806599;29;20361;-64
2023/02/22 07:00:49;;;;;;;79.93;27.47;;;4.20;99.90;;;;;;4806551;29;20581;-63
2023/02/22 07:03:54;;;;;;;73.07;28.00;;;4.20;99.90;;;;;;4806868;29;20184;-63
2023/02/22 07:07:00;;;;;;;86.07;27.77;;;4.30;99.90;;;;;;4806150;29;20642;-63
2023/02/22 07:10:07;;;;;;;74.83;27.07;;;4.30;99.90;;;;;;4788438;30;20186;-63
2023/02/22 07:13:14;;;;;;;79.80;26.40;;;4.40;99.90;;;;;;4788456;30;20731;-63
2023/02/22 07:16:20;;;;;;;78.13;29.40;;;4.40;99.90;;;;;;4805663;29;20228;-63
2023/02/22 07:19:26;;;;;;;75.97;28.13;;;4.40;99.90;;;;;;4806756;29;20227;-63
2023/02/22 07:22:32;;;;;;;79.03;28.77;;;4.40;99.90;;;;;;4788183;30;20182;-62
2023/02/22 07:25:38;;;;;;;77.80;27.03;;;4.50;99.90;;;;;;4788494;30;20546;-63
2023/02/22 07:28:43;;;;;;;74.43;27.17;;;4.60;99.90;;;;;;4788251;30;20252;-62
2023/02/22 07:31:56;;;;;;;72.07;26.30;;;4.70;99.90;;;;;;4788311;30;20323;-63
2023/02/22 07:35:02;;;;;;;65.53;26.10;;;4.70;99.90;;;;;;4788431;29;20677;-62
2023/02/22 07:38:09;;;;;;;73.07;28.00;;;4.80;99.90;;;;;;4791765;30;20193;-62
2023/02/22 07:41:15;;;;;;;72.90;27.30;;;4.70;99.90;;;;;;4791671;30;20224;-62
2023/02/22 07:44:21;;;;;;;71.50;26.80;;;4.70;99.90;;;;;;4792198;30;20300;-63
2023/02/22 07:47:28;;;;;;;59.43;26.70;;;4.80;99.90;;;;;;4791766;30;20718;-62
2023/02/22 07:50:35;;;;;;;59.83;25.13;;;5.00;99.90;;;;;;4791671;30;20247;-63
2023/02/22 07:53:41;;;;;;;59.27;25.33;;;4.90;99.90;;;;;;4791827;30;20209;-63
2023/02/22 07:56:48;;;;;;;69.57;26.70;;;4.90;99.90;;;;;;4791559;30;20225;-63
2023/02/22 07:59:54;;;;;;;67.17;26.77;;;5.00;99.90;;;;;;4791940;30;20186;-63
2023/02/22 08:03:02;;;;;;;67.87;26.63;;;5.10;99.90;;;;;;4791987;30;20551;-62
2023/02/22 08:06:08;;;;;;;59.63;25.53;;;5.10;99.90;;;;;;4791125;30;20245;-62
2023/02/22 08:09:14;;;;;;;54.93;25.13;;;5.20;99.90;;;;;;4791338;30;20323;-63
2023/02/22 08:12:20;;;;;;;47.60;23.57;;;5.20;99.90;;;;;;4791349;30;20266;-63
2023/02/22 08:15:28;;;;;;;44.90;21.97;;;5.20;99.90;;;;;;4791281;30;20225;-62
2023/02/22 08:18:37;;;;;;;37.50;20.03;;;5.30;99.90;;;;;;4791161;30;20266;-63
2023/02/22 08:21:43;;;;;;;38.77;20.10;;;5.40;99.90;;;;;;4790918;30;20221;-63
2023/02/22 08:24:52;;;;;;;42.90;21.20;;;5.40;99.90;;;;;;4790855;30;20661;-63
2023/02/22 08:28:00;;;;;;;43.67;21.33;;;5.50;99.90;;;;;;4790973;30;20312;-64
2023/02/22 08:31:06;;;;;;;38.77;19.67;;;5.50;99.90;;;;;;4791005;30;20213;-63
2023/02/22 08:34:13;;;;;;;38.57;19.50;;;5.70;99.90;;;;;;4791563;30;20190;-63
2023/02/22 08:37:19;;;;;;;34.50;18.33;;;5.80;99.90;;;;;;4791217;30;20190;-63
2023/02/22 08:40:27;;;;;;;33.23;18.43;;;5.90;99.90;;;;;;4790952;30;20190;-63
2023/02/22 08:43:33;;;;;;;29.77;17.07;;;6.00;99.90;;;;;;4790867;30;20229;-63
2023/02/22 08:46:38;;;;;;;29.80;16.93;;;6.10;99.90;;;;;;4790174;29;20229;-63
2023/02/22 08:49:46;;;;;;;31.30;16.80;;;6.20;99.90;;;;;;4790635;30;20670;-63
2023/02/22 08:52:52;;;;;;;29.90;15.93;;;6.30;99.90;;;;;;4790595;30;20212;-64
2023/02/22 08:55:58;;;;;;;30.67;16.60;;;6.50;99.90;;;;;;4790498;30;20185;-63
2023/02/22 09:03:35;;;;;;;30.23;15.07;;;6.80;99.90;;;;;;4790560;30;20186;-63
2023/02/22 09:06:47;;;;;;;26.13;15.40;;;7.10;99.90;;;;;;4790546;30;20379;-63
2023/02/22 09:09:52;;;;;;;23.50;13.97;;;7.40;99.90;;;;;;4790936;30;20193;-63
2023/02/22 09:12:59;;;;;;;22.17;14.00;;;7.50;99.90;;;;;;4790212;30;20721;-63
2023/02/22 09:16:06;;;;;;;22.47;14.53;;;7.70;99.90;;;;;;4790205;30;20299;-63
2023/02/22 09:19:11;;;;;;;24.97;15.33;;;7.90;99.90;;;;;;4790249;30;20570;-63
2023/02/22 09:22:18;;;;;;;28.43;14.93;;;8.00;99.90;;;;;;4789930;30;20228;-63
2023/02/22 09:25:24;;;;;;;26.67;14.87;;;8.10;99.90;;;;;;4790138;30;20279;-63
2023/02/22 09:28:30;;;;;;;24.60;13.77;;;8.20;99.90;;;;;;4789953;30;20217;-64
2023/02/22 09:36:08;;;;;;;24.33;13.83;;;8.40;99.90;;;;;;4789762;30;20242;-63
2023/02/22 09:39:16;;;;;;;23.83;13.90;;;8.40;99.90;;;;;;4789541;30;20239;-63
2023/02/22 09:42:32;;;;;;;22.37;13.73;;;8.50;99.90;;;;;;4789159;30;20724;-63
2023/02/22 09:45:51;;;;;;;24.70;14.70;;;8.70;99.90;;;;;;4789578;30;20194;-63
2023/02/22 09:49:05;;;;;;;22.83;14.30;;;8.80;99.90;;;;;;4789538;30;20698;-63
2023/02/22 09:52:18;;;;;;;25.67;14.57;;;8.90;99.90;;;;;;4789697;30;20189;-63
2023/02/22 09:55:34;;;;;;;26.40;15.67;;;8.90;99.90;;;;;;4789141;30;20205;-63
2023/02/22 09:58:44;;;;;;;27.70;14.37;;;9.00;99.90;;;;;;4788666;29;20233;-63
2023/02/22 10:01:57;;;;;;;21.47;14.57;;;9.20;99.90;;;;;;4788912;30;20609;-63
2023/02/22 10:05:12;;;;;;;25.93;14.57;;;9.30;99.90;;;;;;4788983;30;20197;-63
2023/02/22 10:13:12;;;;;;;31.53;16.03;;;9.40;99.90;;;;;;4789174;30;20673;-63
2023/02/22 10:16:23;;;;;;;24.57;15.23;;;9.40;99.90;;;;;;4789069;30;20267;-64
2023/02/22 10:19:37;;;;;;;25.40;15.97;;;9.50;99.90;;;;;;4789690;30;20190;-63
2023/02/22 10:22:58;;;;;;;26.97;15.37;;;9.40;99.90;;;;;;4789124;30;20213;-63
2023/02/22 10:49:43;;;;;;;28.80;16.97;;;10.10;99.90;;;;;;4806531;29;20242;-64
2023/02/22 10:57:32;;;;;;;28.63;18.03;;;10.40;99.90;;;;;;4806632;29;20206;-64
2023/02/22 11:00:39;;;;;;;28.30;18.83;;;10.40;99.90;;;;;;4806555;29;20236;-63
2023/02/22 11:04:01;;;;;;;31.30;18.77;;;10.30;99.90;;;;;;4806352;29;20550;-63
2023/02/22 11:07:10;;;;;;;35.63;19.67;;;10.30;99.90;;;;;;4806419;29;20244;-64
2023/02/22 11:10:37;;;;;;;31.67;19.90;;;10.30;99.90;;;;;;4806407;29;20243;-63
2023/02/22 11:13:43;;;;;;;31.03;19.63;;;10.40;99.90;;;;;;4806673;29;20225;-63
2023/02/22 11:16:52;;;;;;;31.83;19.00;;;10.40;99.90;;;;;;4806076;29;20315;-63
2023/02/22 11:19:59;;;;;;;34.97;20.00;;;10.40;99.90;;;;;;4806352;29;20192;-65
2023/02/22 11:23:07;;;;;;;32.77;20.07;;;10.30;99.90;;;;;;4806483;29;20205;-64
2023/02/22 11:26:17;;;;;;;31.33;19.77;;;10.30;99.90;;;;;;4806388;29;20386;-64
2023/02/22 11:29:30;;;;;;;30.93;20.10;;;10.50;99.90;;;;;;4806283;29;20248;-63
2023/02/22 11:32:38;;;;;;;32.93;21.73;;;10.60;99.90;;;;;;4806072;29;20265;-63
2023/02/22 11:35:52;;;;;;;40.83;23.23;;;10.70;99.90;;;;;;4806565;29;20709;-64
2023/02/22 11:38:59;;;;;;;34.37;21.90;;;10.80;99.90;;;;;;4806291;29;20214;-63
2023/02/22 11:42:22;;;;;;;34.03;21.37;;;10.90;99.90;;;;;;4805885;29;20780;-64
2023/02/22 11:45:28;;;;;;;35.63;21.30;;;11.00;99.90;;;;;;4788531;30;20688;-64
2023/02/22 11:48:38;;;;;;;39.33;22.10;;;11.10;99.90;;;;;;4788206;30;20233;-63
2023/02/22 11:52:03;;;;;;;35.13;22.27;;;11.30;99.90;;;;;;4788153;30;20638;-63
2023/02/22 11:55:21;;;;;;;36.27;22.37;;;11.30;99.90;;;;;;4788046;30;20229;-63
2023/02/22 11:58:50;;;;;;;34.67;21.27;;;11.40;99.90;;;;;;4787907;30;20275;-63
2023/02/22 12:01:58;;;;;;;39.10;23.97;;;11.40;99.90;;;;;;4787661;30;20217;-64
2023/02/22 12:05:25;;;;;;;39.30;26.03;;;11.60;99.90;;;;;;4787973;30;20719;-64
2023/02/22 12:08:41;;;;;;;38.67;25.80;;;11.60;99.90;;;;;;4788183;30;20193;-64
2023/02/22 12:11:58;;;;;;;37.57;25.60;;;11.90;99.90;;;;;;4788446;30;20226;-63
2023/02/22 12:19:47;;;;;;;42.37;25.40;;;12.10;99.90;;;;;;4787918;30;20228;-64
2023/02/22 12:23:01;;;;;;;50.70;31.43;;;12.10;99.90;;;;;;4791121;30;20235;-64
2023/02/22 12:26:15;;;;;;;48.17;29.47;;;12.10;99.90;;;;;;4791168;30;20324;-64
2023/02/22 12:29:29;;;;;;;50.97;30.20;;;12.10;99.90;;;;;;4790464;30;20699;-63
2023/02/22 12:32:41;;;;;;;51.63;31.53;;;12.10;99.90;;;;;;4791464;30;20227;-64
2023/02/22 12:35:52;;;;;;;55.20;33.40;;;11.90;99.90;;;;;;4791494;30;20681;-63
2023/02/22 12:39:04;;;;;;;47.40;30.83;;;11.70;99.90;;;;;;4790854;30;20702;-63
2023/02/22 12:42:16;;;;;;;47.30;29.97;;;11.50;99.90;;;;;;4790741;30;20213;-64
2023/02/22 12:45:30;;;;;;;48.53;30.40;;;11.30;99.90;;;;;;4790834;30;20233;-63
2023/02/22 12:48:43;;;;;;;46.60;29.03;;;11.20;99.90;;;;;;4790858;30;20221;-64
2023/02/22 12:51:56;;;;;;;48.90;29.43;;;11.10;99.90;;;;;;4790517;30;20201;-64
2023/02/22 12:55:08;;;;;;;45.53;29.00;;;11.10;99.90;;;;;;4791020;30;20197;-63
2023/02/22 12:58:24;;;;;;;45.53;28.97;;;11.10;99.90;;;;;;4790973;30;20229;-63
2023/02/22 13:01:37;;;;;;;48.33;29.33;;;11.00;99.90;;;;;;4790321;30;20665;-64
2023/02/22 13:04:43;;;;;;;48.50;29.50;;;10.80;99.90;;;;;;4790432;30;20229;-63
2023/02/22 13:07:59;;;;;;;44.83;29.47;;;10.80;99.90;;;;;;4790407;30;20198;-63
2023/02/22 13:11:14;;;;;;;49.37;31.83;;;10.70;99.90;;;;;;4790716;30;20186;-63
2023/02/22 13:14:43;;;;;;;50.73;31.47;;;10.70;99.90;;;;;;4789767;30;20630;-64
2023/02/22 13:18:01;;;;;;;58.80;32.90;;;10.70;99.90;;;;;;4790352;30;20194;-63
2023/02/22 13:21:18;;;;;;;54.03;32.63;;;10.60;99.90;;;;;;4790492;30;20201;-63
2023/02/22 13:24:29;;;;;;;52.77;31.13;;;10.60;99.90;;;;;;4790119;30;20217;-63
2023/02/22 13:27:43;;;;;;;54.60;32.23;;;10.60;99.90;;;;;;4790054;30;20567;-64
2023/02/22 13:31:03;;;;;;;53.83;31.73;;;10.50;99.90;;;;;;4789916;30;20265;-63
2023/02/22 13:34:29;;;;;;;56.77;33.23;;;10.60;99.90;;;;;;4789620;30;20229;-63
2023/02/22 13:37:57;;;;;;;57.50;34.67;;;10.50;99.90;;;;;;4790412;30;20242;-64
2023/02/22 13:41:24;;;;;;;61.20;35.07;;;10.30;99.90;;;;;;4789803;30;20234;-64
2023/02/22 13:45:12;;;;;;;62.57;34.07;;;10.20;99.90;;;;;;4789555;30;20230;-64
2023/02/22 13:48:54;;;;;;;55.27;33.13;;;10.20;99.90;;;;;;4789588;30;20582;-63
2023/02/22 13:52:06;;;;;;;53.63;32.60;;;10.20;99.90;;;;;;4789659;30;20189;-63
2023/02/22 13:55:19;;;;;;;59.63;33.83;;;10.20;99.90;;;;;;4789675;30;20531;-63
2023/02/22 13:58:25;;;;;;;62.80;33.70;;;10.20;99.90;;;;;;4789302;30;20229;-63
2023/02/22 14:01:44;;;;;;;67.37;34.93;;;10.20;99.90;;;;;;4789627;30;20251;-64
2023/02/22 14:04:50;;;;;;;65.30;35.50;;;10.10;99.90;;;;;;4789376;30;20249;-63
2023/02/22 14:07:58;;;;;;;66.23;36.83;;;10.10;99.90;;;;;;4789352;30;20726;-63
2023/02/22 14:11:05;;;;;;;71.13;37.40;;;9.90;99.90;;;;;;4789305;30;20186;-63
2023/02/22 14:14:17;;;;;;;67.97;36.50;;;9.80;99.90;;;;;;4788806;30;20273;-63
2023/02/22 14:17:25;;;;;;;69.07;36.50;;;9.80;99.90;;;;;;4803571;29;20317;-63
2023/02/22 14:20:35;;;;;;;70.13;37.27;;;9.70;99.90;;;;;;4806991;29;20274;-63
2023/02/22 14:23:44;;;;;;;68.10;35.80;;;9.70;99.90;;;;;;4807004;29;20217;-64
2023/02/22 14:27:02;;;;;;;68.77;37.40;;;9.70;99.90;;;;;;4807011;29;20628;-63
2023/02/22 14:39:23;;;;;;;81.93;37.70;;;9.50;99.90;;;;;;4806892;29;20205;-63
2023/02/22 14:42:33;;;;;;;75.00;37.57;;;9.50;99.90;;;;;;4806805;29;20189;-64
2023/02/22 14:45:45;;;;;;;74.30;37.17;;;9.50;99.90;;;;;;4806204;29;20232;-64
2023/02/22 14:48:58;;;;;;;77.40;37.87;;;9.50;99.90;;;;;;4806340;29;20225;-63
2023/02/22 14:52:13;;;;;;;77.50;37.17;;;9.50;99.90;;;;;;4806769;29;20224;-63
2023/02/22 14:55:24;;;;;;;75.33;36.87;;;9.40;99.90;;;;;;4806567;29;20204;-63
2023/02/22 14:58:37;;;;;;;82.20;38.97;;;9.40;99.90;;;;;;4806825;29;20196;-64
2023/02/22 15:01:45;;;;;;;81.80;39.63;;;9.40;99.90;;;;;;4806423;29;20260;-63
2023/02/22 15:05:14;;;;;;;88.33;41.67;;;9.40;99.90;;;;;;4806719;29;20224;-63
2023/02/22 15:08:27;;;;;;;92.50;42.87;;;9.40;99.90;;;;;;4806882;29;20188;-63
2023/02/22 15:11:34;;;;;;;92.13;43.47;;;9.30;99.90;;;;;;4806623;29;20220;-63
2023/02/22 15:14:46;;;;;;;98.67;45.27;;;9.30;99.90;;;;;;4806305;29;20308;-64
2023/02/22 15:17:56;;;;;;;114.40;47.83;;;9.30;99.90;;;;;;4806362;29;20700;-63
2023/02/22 15:21:08;;;;;;;94.67;44.60;;;9.30;99.90;;;;;;4806346;29;20224;-63
2023/02/22 15:28:45;;;;;;;102.30;45.37;;;9.30;99.90;;;;;;4787959;30;20542;-63
2023/02/22 15:36:27;;;;;;;111.03;47.30;;;9.20;99.90;;;;;;4788324;30;20284;-64
2023/02/22 15:39:42;;;;;;;106.50;45.50;;;9.20;99.90;;;;;;4791367;29;20227;-64
2023/02/22 15:42:51;;;;;;;114.27;48.17;;;9.20;99.90;;;;;;4806355;29;20194;-63
2023/02/22 15:46:00;;;;;;;123.50;48.47;;;9.20;99.90;;;;;;4806370;29;20367;-64
2023/02/22 15:49:23;;;;;;;118.90;49.03;;;9.20;99.90;;;;;;4806112;29;20189;-63
2023/02/22 15:52:30;;;;;;;130.60;54.50;;;9.20;99.90;;;;;;4806176;29;20197;-63
2023/02/22 15:55:38;;;;;;;115.93;47.97;;;9.10;99.90;;;;;;4806310;29;20185;-64
2023/02/22 15:58:46;;;;;;;106.20;46.80;;;9.10;99.90;;;;;;4809592;29;20234;-63
2023/02/22 16:01:54;;;;;;;115.93;49.47;;;9.10;99.90;;;;;;4791567;30;20575;-63
2023/02/22 16:05:05;;;;;;;123.67;49.73;;;9.20;99.90;;;;;;4790858;30;20728;-63
2023/02/22 16:17:35;;;;;;;108.37;44.00;;;9.10;99.90;;;;;;4791336;30;20604;-63
2023/02/22 16:20:41;;;;;;;114.10;45.37;;;9.10;99.90;;;;;;4791258;30;20629;-63
2023/02/22 16:23:49;;;;;;;110.07;44.27;;;9.10;99.90;;;;;;4791098;30;20611;-63
2023/02/22 16:27:07;;;;;;;107.80;44.47;;;9.10;99.90;;;;;;4791134;30;20190;-63
2023/02/22 16:30:24;;;;;;;110.60;46.10;;;9.10;99.90;;;;;;4791000;30;20237;-63
2023/02/22 16:33:32;;;;;;;110.83;45.00;;;9.10;99.90;;;;;;4790716;30;20574;-63
2023/02/22 16:36:40;;;;;;;115.30;45.57;;;9.10;99.90;;;;;;4790579;30;20237;-63
2023/02/22 16:39:50;;;;;;;107.37;44.00;;;9.00;99.90;;;;;;4791267;30;20237;-63
2023/02/22 16:42:56;;;;;;;110.77;44.50;;;8.90;99.90;;;;;;4791138;30;20239;-63
2023/02/22 16:46:03;;;;;;;122.70;50.37;;;8.90;99.90;;;;;;4790984;30;20229;-64
2023/02/22 16:49:11;;;;;;;105.57;42.43;;;8.90;99.90;;;;;;4790940;30;20197;-63
2023/02/22 16:52:17;;;;;;;106.83;42.13;;;8.90;99.90;;;;;;4791160;30;20193;-64
2023/02/22 16:55:23;;;;;;;103.57;41.47;;;8.90;99.90;;;;;;4790347;30;20545;-64
2023/02/22 16:58:33;;;;;;;102.20;40.17;;;8.90;99.90;;;;;;4790807;30;20657;-64
2023/02/22 17:01:39;;;;;;;108.97;41.43;;;8.90;99.90;;;;;;4790613;30;20225;-63
2023/02/22 17:04:48;;;;;;;106.30;40.50;;;8.90;99.90;;;;;;4790330;30;20579;-63
2023/02/22 17:07:54;;;;;;;102.23;40.33;;;8.90;99.90;;;;;;4790103;29;20626;-64
2023/02/22 17:11:00;;;;;;;103.83;40.83;;;8.90;99.90;;;;;;4790356;30;20197;-64
2023/02/22 17:14:06;;;;;;;101.03;40.90;;;8.90;99.90;;;;;;4790585;30;20518;-63
2023/02/22 17:17:13;;;;;;;103.27;40.40;;;8.80;99.90;;;;;;4790141;30;20241;-64
2023/02/22 17:20:28;;;;;;;99.33;39.37;;;8.80;99.90;;;;;;4790422;30;20278;-63
2023/02/22 17:23:34;;;;;;;100.00;39.70;;;8.80;99.90;;;;;;4790170;30;20256;-64
2023/02/22 17:26:40;;;;;;;100.47;39.73;;;8.80;99.90;;;;;;4790484;30;20209;-63
2023/02/22 17:29:46;;;;;;;106.83;41.50;;;8.80;99.90;;;;;;4789802;30;20225;-64
2023/02/22 17:32:54;;;;;;;98.37;40.50;;;8.70;99.90;;;;;;4789949;30;20574;-64
2023/02/22 17:36:04;;;;;;;103.83;40.40;;;8.70;99.90;;;;;;4789851;30;20629;-63
2023/02/22 17:39:10;;;;;;;102.60;40.00;;;8.70;99.90;;;;;;4793379;29;20205;-63
2023/02/22 17:42:19;;;;;;;95.77;38.50;;;8.70;99.90;;;;;;4789521;30;20189;-63
2023/02/22 17:45:25;;;;;;;99.90;40.30;;;8.70;99.90;;;;;;4792614;29;20581;-63
2023/02/22 17:48:31;;;;;;;95.07;38.03;;;8.70;99.90;;;;;;4807290;29;20362;-64
2023/02/22 17:51:40;;;;;;;86.17;37.47;;;8.70;99.90;;;;;;4807763;29;20817;-63